sensor_id;sensor_type;location;lat;lon;timestamp;pressure;altitude;pressure_sealevel;temperature;humidity
80585;BME280;70137;56.482;9.154;2023-11-18T00:00:37;102510.59;;;-0.20;91.42
80585;BME280;70137;56.482;9.154;2023-11-18T00:03:02;102505.47;;;-0.18;91.85
80585;BME280;70137;56.482;9.154;2023-11-18T00:05:28;102500.28;;;-0.15;92.48
80585;BME280;70137;56.482;9.154;2023-11-18T00:07:53;102504.44;;;-0.13;91.63
80585;BME280;70137;56.482;9.154;2023-11-18T00:10:19;102514.56;;;-0.11;92.10
80585;BME280;70137;56.482;9.154;2023-11-18T00:12:44;102511.13;;;-0.10;91.39
80585;BME280;70137;56.482;9.154;2023-11-18T00:15:10;102511.13;;;-0.09;91.75
80585;BME280;70137;56.482;9.154;2023-11-18T00:17:37;102514.44;;;-0.07;91.90
80585;BME280;70137;56.482;9.154;2023-11-18T00:20:02;102517.81;;;-0.06;92.34
80585;BME280;70137;56.482;9.154;2023-11-18T00:22:33;102511.19;;;-0.12;92.01
80585;BME280;70137;56.482;9.154;2023-11-18T00:24:59;102503.59;;;-0.13;92.26
80585;BME280;70137;56.482;9.154;2023-11-18T00:27:24;102506.16;;;-0.13;91.83
80585;BME280;70137;56.482;9.154;2023-11-18T00:29:50;102504.50;;;-0.14;92.36
80585;BME280;70137;56.482;9.154;2023-11-18T00:32:15;102506.25;;;-0.16;91.73
80585;BME280;70137;56.482;9.154;2023-11-18T00:34:41;102512.13;;;-0.14;92.32
80585;BME280;70137;56.482;9.154;2023-11-18T00:37:07;102507.72;;;-0.09;92.30
80585;BME280;70137;56.482;9.154;2023-11-18T00:39:32;102510.00;;;-0.02;92.45
80585;BME280;70137;56.482;9.154;2023-11-18T00:41:57;102505.59;;;0.04;92.58
80585;BME280;70137;56.482;9.154;2023-11-18T00:44:23;102502.03;;;0.08;92.14
80585;BME280;70137;56.482;9.154;2023-11-18T00:46:48;102507.00;;;0.12;92.43
80585;BME280;70137;56.482;9.154;2023-11-18T00:49:13;102501.84;;;0.14;92.37
80585;BME280;70137;56.482;9.154;2023-11-18T00:51:39;102501.84;;;0.14;92.41
80585;BME280;70137;56.482;9.154;2023-11-18T00:54:06;102494.03;;;0.18;92.29
80585;BME280;70137;56.482;9.154;2023-11-18T00:56:32;102492.28;;;0.20;92.52
80585;BME280;70137;56.482;9.154;2023-11-18T00:58:58;102494.00;;;0.20;92.67
80585;BME280;70137;56.482;9.154;2023-11-18T01:01:23;102495.72;;;0.19;92.32
80585;BME280;70137;56.482;9.154;2023-11-18T01:03:48;102498.28;;;0.18;92.43
80585;BME280;70137;56.482;9.154;2023-11-18T01:06:14;102498.28;;;0.18;92.75
80585;BME280;70137;56.482;9.154;2023-11-18T01:08:46;102489.91;;;0.14;92.58
80585;BME280;70137;56.482;9.154;2023-11-18T01:11:17;102492.34;;;0.17;92.51
80585;BME280;70137;56.482;9.154;2023-11-18T01:13:45;102491.38;;;0.21;92.51
80585;BME280;70137;56.482;9.154;2023-11-18T01:16:10;102488.59;;;0.27;92.41
80585;BME280;70137;56.482;9.154;2023-11-18T01:18:36;102485.91;;;0.32;92.98
80585;BME280;70137;56.482;9.154;2023-11-18T01:21:01;102484.00;;;0.37;93.07
80585;BME280;70137;56.482;9.154;2023-11-18T01:23:27;102483.97;;;0.39;93.43
80585;BME280;70137;56.482;9.154;2023-11-18T01:25:53;102480.56;;;0.38;93.15
80585;BME280;70137;56.482;9.154;2023-11-18T01:28:18;102479.84;;;0.35;93.10
80585;BME280;70137;56.482;9.154;2023-11-18T01:30:43;102474.75;;;0.35;92.95
80585;BME280;70137;56.482;9.154;2023-11-18T01:33:10;102472.06;;;0.38;93.54
80585;BME280;70137;56.482;9.154;2023-11-18T01:35:35;102467.72;;;0.41;93.10
80585;BME280;70137;56.482;9.154;2023-11-18T01:38:01;102463.38;;;0.43;93.63
80585;BME280;70137;56.482;9.154;2023-11-18T01:40:26;102454.72;;;0.47;93.30
80585;BME280;70137;56.482;9.154;2023-11-18T01:42:51;102457.25;;;0.49;93.60
80585;BME280;70137;56.482;9.154;2023-11-18T01:45:17;102456.28;;;0.51;93.83
80585;BME280;70137;56.482;9.154;2023-11-18T01:47:43;102456.22;;;0.53;93.42
80585;BME280;70137;56.482;9.154;2023-11-18T01:50:10;102455.34;;;0.54;93.40
80585;BME280;70137;56.482;9.154;2023-11-18T01:52:37;102457.00;;;0.55;93.18
80585;BME280;70137;56.482;9.154;2023-11-18T01:55:03;102461.22;;;0.56;93.39
80585;BME280;70137;56.482;9.154;2023-11-18T01:57:32;102461.22;;;0.56;93.18
80585;BME280;70137;56.482;9.154;2023-11-18T01:59:58;102453.56;;;0.56;93.49
80585;BME280;70137;56.482;9.154;2023-11-18T02:02:25;102458.59;;;0.57;93.43
80585;BME280;70137;56.482;9.154;2023-11-18T02:04:51;102457.72;;;0.59;93.63
80585;BME280;70137;56.482;9.154;2023-11-18T02:07:17;102458.56;;;0.59;93.22
80585;BME280;70137;56.482;9.154;2023-11-18T02:09:43;102451.00;;;0.56;93.84
80585;BME280;70137;56.482;9.154;2023-11-18T02:14:50;102451.88;;;0.55;93.34
80585;BME280;70137;56.482;9.154;2023-11-18T02:17:18;102461.31;;;0.53;93.28
80585;BME280;70137;56.482;9.154;2023-11-18T02:19:45;102469.09;;;0.50;93.50
80585;BME280;70137;56.482;9.154;2023-11-18T02:22:11;102469.19;;;0.47;93.74
80585;BME280;70137;56.482;9.154;2023-11-18T02:24:36;102473.72;;;0.40;93.37
80585;BME280;70137;56.482;9.154;2023-11-18T02:27:03;102472.13;;;0.36;93.57
80585;BME280;70137;56.482;9.154;2023-11-18T02:29:36;102467.16;;;0.33;93.22
80585;BME280;70137;56.482;9.154;2023-11-18T02:32:27;102463.84;;;0.31;93.16
80585;BME280;70137;56.482;9.154;2023-11-18T02:35:05;102461.44;;;0.26;93.29
80585;BME280;70137;56.482;9.154;2023-11-18T02:37:37;102463.22;;;0.24;93.37
80585;BME280;70137;56.482;9.154;2023-11-18T02:40:05;102457.34;;;0.22;93.31
80585;BME280;70137;56.482;9.154;2023-11-18T02:42:35;102460.84;;;0.20;93.02
80585;BME280;70137;56.482;9.154;2023-11-18T02:45:04;102457.53;;;0.16;93.32
80585;BME280;70137;56.482;9.154;2023-11-18T02:47:32;102459.50;;;0.10;92.88
80585;BME280;70137;56.482;9.154;2023-11-18T02:49:57;102461.34;;;0.05;93.08
80585;BME280;70137;56.482;9.154;2023-11-18T02:52:30;102463.19;;;0.01;92.76
80585;BME280;70137;56.482;9.154;2023-11-18T02:54:56;102466.72;;;-0.03;92.52
80585;BME280;70137;56.482;9.154;2023-11-18T02:57:21;102460.97;;;-0.08;92.42
80585;BME280;70137;56.482;9.154;2023-11-18T02:59:46;102465.31;;;-0.12;92.52
80585;BME280;70137;56.482;9.154;2023-11-18T03:02:12;102464.59;;;-0.15;92.24
80585;BME280;70137;56.482;9.154;2023-11-18T03:04:38;102467.28;;;-0.20;92.45
80585;BME280;70137;56.482;9.154;2023-11-18T03:07:03;102470.00;;;-0.24;91.65
80585;BME280;70137;56.482;9.154;2023-11-18T03:09:28;102463.38;;;-0.30;91.46
80585;BME280;70137;56.482;9.154;2023-11-18T03:11:53;102476.16;;;-0.32;91.78
80585;BME280;70137;56.482;9.154;2023-11-18T03:14:20;102466.03;;;-0.33;91.92
80585;BME280;70137;56.482;9.154;2023-11-18T03:16:45;102462.66;;;-0.34;91.17
80585;BME280;70137;56.482;9.154;2023-11-18T03:19:11;102461.88;;;-0.36;91.37
80585;BME280;70137;56.482;9.154;2023-11-18T03:21:36;102461.75;;;-0.33;91.99
80585;BME280;70137;56.482;9.154;2023-11-18T03:24:02;102465.09;;;-0.31;92.02
80585;BME280;70137;56.482;9.154;2023-11-18T03:26:27;102460.00;;;-0.31;91.03
80585;BME280;70137;56.482;9.154;2023-11-18T03:28:53;102459.91;;;-0.27;91.55
80585;BME280;70137;56.482;9.154;2023-11-18T03:31:18;102458.13;;;-0.25;91.79
80585;BME280;70137;56.482;9.154;2023-11-18T03:33:44;102464.91;;;-0.24;91.83
80585;BME280;70137;56.482;9.154;2023-11-18T03:36:10;102468.34;;;-0.25;91.79
80585;BME280;70137;56.482;9.154;2023-11-18T03:38:37;102466.56;;;-0.23;91.85
80585;BME280;70137;56.482;9.154;2023-11-18T03:41:03;102464.00;;;-0.23;92.49
80585;BME280;70137;56.482;9.154;2023-11-18T03:43:28;102461.47;;;-0.23;92.11
80585;BME280;70137;56.482;9.154;2023-11-18T03:45:54;102459.75;;;-0.23;92.07
80585;BME280;70137;56.482;9.154;2023-11-18T03:48:22;102464.00;;;-0.23;92.43
80585;BME280;70137;56.482;9.154;2023-11-18T03:50:47;102459.81;;;-0.24;91.77
80585;BME280;70137;56.482;9.154;2023-11-18T03:53:13;102454.00;;;-0.30;91.83
80585;BME280;70137;56.482;9.154;2023-11-18T03:55:38;102455.13;;;-0.37;92.16
80585;BME280;70137;56.482;9.154;2023-11-18T03:58:03;102453.53;;;-0.41;92.57
80585;BME280;70137;56.482;9.154;2023-11-18T04:00:29;102461.22;;;-0.42;92.05
80585;BME280;70137;56.482;9.154;2023-11-18T04:02:58;102464.63;;;-0.42;92.57
80585;BME280;70137;56.482;9.154;2023-11-18T04:05:24;102456.97;;;-0.42;91.80
80585;BME280;70137;56.482;9.154;2023-11-18T04:07:49;102452.00;;;-0.45;91.77
80585;BME280;70137;56.482;9.154;2023-11-18T04:10:14;102452.00;;;-0.45;91.89
80585;BME280;70137;56.482;9.154;2023-11-18T04:12:40;102460.50;;;-0.46;91.70
80585;BME280;70137;56.482;9.154;2023-11-18T04:15:06;102467.31;;;-0.46;91.97
80585;BME280;70137;56.482;9.154;2023-11-18T04:17:32;102479.31;;;-0.50;91.70
80585;BME280;70137;56.482;9.154;2023-11-18T04:19:58;102470.94;;;-0.53;91.78
80585;BME280;70137;56.482;9.154;2023-11-18T04:22:23;102466.75;;;-0.54;91.54
80585;BME280;70137;56.482;9.154;2023-11-18T04:24:49;102469.34;;;-0.56;91.51
80585;BME280;70137;56.482;9.154;2023-11-18T04:27:15;102467.69;;;-0.57;91.68
80585;BME280;70137;56.482;9.154;2023-11-18T04:29:40;102468.59;;;-0.60;91.70
80585;BME280;70137;56.482;9.154;2023-11-18T04:32:06;102467.75;;;-0.60;91.43
80585;BME280;70137;56.482;9.154;2023-11-18T04:34:37;102461.88;;;-0.62;91.38
80585;BME280;70137;56.482;9.154;2023-11-18T04:37:04;102461.09;;;-0.64;91.37
80585;BME280;70137;56.482;9.154;2023-11-18T04:39:32;102465.41;;;-0.66;91.24
80585;BME280;70137;56.482;9.154;2023-11-18T04:41:57;102467.25;;;-0.71;91.03
80585;BME280;70137;56.482;9.154;2023-11-18T04:44:22;102465.72;;;-0.75;91.04
80585;BME280;70137;56.482;9.154;2023-11-18T04:46:48;102470.00;;;-0.77;90.76
80585;BME280;70137;56.482;9.154;2023-11-18T04:49:13;102466.66;;;-0.79;90.48
80585;BME280;70137;56.482;9.154;2023-11-18T04:51:38;102461.69;;;-0.82;91.25
80585;BME280;70137;56.482;9.154;2023-11-18T04:54:04;102466.81;;;-0.84;90.90
80585;BME280;70137;56.482;9.154;2023-11-18T04:56:33;102460.13;;;-0.87;91.25
80585;BME280;70137;56.482;9.154;2023-11-18T04:59:00;102453.50;;;-0.92;91.08
80585;BME280;70137;56.482;9.154;2023-11-18T05:01:26;102453.63;;;-0.97;90.20
80585;BME280;70137;56.482;9.154;2023-11-18T05:03:52;102457.16;;;-1.01;90.67
80585;BME280;70137;56.482;9.154;2023-11-18T05:06:18;102445.41;;;-1.05;90.34
80585;BME280;70137;56.482;9.154;2023-11-18T05:08:45;102442.06;;;-1.07;90.69
80585;BME280;70137;56.482;9.154;2023-11-18T05:11:11;102432.75;;;-1.08;90.48
80585;BME280;70137;56.482;9.154;2023-11-18T05:13:38;102427.88;;;-1.14;90.33
80585;BME280;70137;56.482;9.154;2023-11-18T05:16:05;102433.06;;;-1.19;90.04
80585;BME280;70137;56.482;9.154;2023-11-18T05:18:31;102433.19;;;-1.22;90.22
80585;BME280;70137;56.482;9.154;2023-11-18T05:21:01;102431.53;;;-1.23;91.05
80585;BME280;70137;56.482;9.154;2023-11-18T05:23:28;102432.34;;;-1.22;90.31
80585;BME280;70137;56.482;9.154;2023-11-18T05:25:54;102429.81;;;-1.22;90.79
80585;BME280;70137;56.482;9.154;2023-11-18T05:28:21;102431.56;;;-1.24;90.73
80585;BME280;70137;56.482;9.154;2023-11-18T05:30:47;102430.69;;;-1.23;90.62
80585;BME280;70137;56.482;9.154;2023-11-18T05:33:12;102419.69;;;-1.24;90.71
80585;BME280;70137;56.482;9.154;2023-11-18T05:35:43;102416.31;;;-1.26;90.44
80585;BME280;70137;56.482;9.154;2023-11-18T05:38:15;102413.94;;;-1.30;90.47
80585;BME280;70137;56.482;9.154;2023-11-18T05:40:43;102411.47;;;-1.33;90.71
80585;BME280;70137;56.482;9.154;2023-11-18T05:43:15;102419.13;;;-1.33;90.14
80585;BME280;70137;56.482;9.154;2023-11-18T05:45:42;102416.56;;;-1.33;90.60
80585;BME280;70137;56.482;9.154;2023-11-18T05:48:28;102424.22;;;-1.33;90.42
80585;BME280;70137;56.482;9.154;2023-11-18T05:50:53;102419.94;;;-1.33;91.10
80585;BME280;70137;56.482;9.154;2023-11-18T05:53:18;102420.78;;;-1.32;90.90
80585;BME280;70137;56.482;9.154;2023-11-18T05:55:43;102419.03;;;-1.30;90.47
80585;BME280;70137;56.482;9.154;2023-11-18T05:58:09;102415.59;;;-1.29;90.39
80585;BME280;70137;56.482;9.154;2023-11-18T06:00:35;102424.00;;;-1.27;91.35
80585;BME280;70137;56.482;9.154;2023-11-18T06:03:00;102423.97;;;-1.26;90.74
80585;BME280;70137;56.482;9.154;2023-11-18T06:05:25;102422.28;;;-1.25;91.03
80585;BME280;70137;56.482;9.154;2023-11-18T06:07:54;102421.41;;;-1.26;90.56
80585;BME280;70137;56.482;9.154;2023-11-18T06:10:19;102424.88;;;-1.28;90.78
80585;BME280;70137;56.482;9.154;2023-11-18T06:12:45;102448.63;;;-1.28;90.37
80585;BME280;70137;56.482;9.154;2023-11-18T06:15:12;102448.56;;;-1.26;90.09
80585;BME280;70137;56.482;9.154;2023-11-18T06:17:39;102438.31;;;-1.23;90.49
80585;BME280;70137;56.482;9.154;2023-11-18T06:20:05;102434.00;;;-1.21;90.62
80585;BME280;70137;56.482;9.154;2023-11-18T06:22:35;102436.47;;;-1.18;90.13
80585;BME280;70137;56.482;9.154;2023-11-18T06:25:01;102427.91;;;-1.16;90.47
80585;BME280;70137;56.482;9.154;2023-11-18T06:27:27;102432.03;;;-1.11;90.10
80585;BME280;70137;56.482;9.154;2023-11-18T06:29:53;102424.22;;;-1.07;90.58
80585;BME280;70137;56.482;9.154;2023-11-18T06:32:20;102424.09;;;-1.02;90.17
80585;BME280;70137;56.482;9.154;2023-11-18T06:34:45;102426.59;;;-1.01;90.76
80585;BME280;70137;56.482;9.154;2023-11-18T06:37:10;102423.06;;;-0.97;91.17
80585;BME280;70137;56.482;9.154;2023-11-18T06:39:41;102417.91;;;-0.94;90.82
80585;BME280;70137;56.482;9.154;2023-11-18T06:42:09;102412.69;;;-0.91;90.09
80585;BME280;70137;56.482;9.154;2023-11-18T06:44:37;102411.75;;;-0.87;90.51
80585;BME280;70137;56.482;9.154;2023-11-18T06:47:02;102418.38;;;-0.82;90.91
80585;BME280;70137;56.482;9.154;2023-11-18T06:49:28;102417.50;;;-0.81;90.85
80585;BME280;70137;56.482;9.154;2023-11-18T06:51:54;102408.97;;;-0.80;90.93
80585;BME280;70137;56.482;9.154;2023-11-18T06:54:20;102411.41;;;-0.77;90.50
80585;BME280;70137;56.482;9.154;2023-11-18T06:56:45;102402.13;;;-0.78;91.12
80585;BME280;70137;56.482;9.154;2023-11-18T06:59:14;102402.19;;;-0.80;90.54
80585;BME280;70137;56.482;9.154;2023-11-18T07:01:40;102398.81;;;-0.80;90.66
80585;BME280;70137;56.482;9.154;2023-11-18T07:04:09;102402.22;;;-0.81;90.81
80585;BME280;70137;56.482;9.154;2023-11-18T07:06:34;102389.56;;;-0.83;91.12
80585;BME280;70137;56.482;9.154;2023-11-18T07:09:06;102395.53;;;-0.84;90.40
80585;BME280;70137;56.482;9.154;2023-11-18T07:11:58;102398.31;;;-0.92;90.22
80585;BME280;70137;56.482;9.154;2023-11-18T07:14:23;102393.41;;;-0.98;90.62
80585;BME280;70137;56.482;9.154;2023-11-18T07:16:50;102391.75;;;-0.99;91.09
80585;BME280;70137;56.482;9.154;2023-11-18T07:19:16;102399.38;;;-0.99;91.22
80585;BME280;70137;56.482;9.154;2023-11-18T07:21:49;102401.03;;;-0.96;91.16
80585;BME280;70137;56.482;9.154;2023-11-18T07:24:15;102407.72;;;-0.94;90.54
80585;BME280;70137;56.482;9.154;2023-11-18T07:26:40;102407.63;;;-0.91;90.99
80585;BME280;70137;56.482;9.154;2023-11-18T07:29:05;102403.34;;;-0.90;91.15
80585;BME280;70137;56.482;9.154;2023-11-18T07:31:34;102400.97;;;-0.95;91.38
80585;BME280;70137;56.482;9.154;2023-11-18T07:34:02;102396.94;;;-1.02;91.32
80585;BME280;70137;56.482;9.154;2023-11-18T07:36:28;102404.75;;;-1.08;91.17
80585;BME280;70137;56.482;9.154;2023-11-18T07:38:53;102397.28;;;-1.12;90.60
80585;BME280;70137;56.482;9.154;2023-11-18T07:41:22;102392.31;;;-1.17;91.34
80585;BME280;70137;56.482;9.154;2023-11-18T07:43:53;102393.19;;;-1.18;90.93
80585;BME280;70137;56.482;9.154;2023-11-18T07:46:20;102391.47;;;-1.18;91.22
80585;BME280;70137;56.482;9.154;2023-11-18T07:48:50;102391.34;;;-1.13;91.94
80585;BME280;70137;56.482;9.154;2023-11-18T07:51:17;102401.44;;;-1.10;92.20
80585;BME280;70137;56.482;9.154;2023-11-18T07:53:43;102396.22;;;-1.07;92.79
80585;BME280;70137;56.482;9.154;2023-11-18T07:56:08;102394.50;;;-1.05;92.58
80585;BME280;70137;56.482;9.154;2023-11-18T07:58:37;102396.16;;;-1.04;92.94
80585;BME280;70137;56.482;9.154;2023-11-18T08:01:03;102400.31;;;-1.01;92.56
80585;BME280;70137;56.482;9.154;2023-11-18T08:03:33;102390.91;;;-0.99;93.11
80585;BME280;70137;56.482;9.154;2023-11-18T08:05:59;102390.97;;;-1.01;92.58
80585;BME280;70137;56.482;9.154;2023-11-18T08:08:24;102385.00;;;-1.00;93.88
80585;BME280;70137;56.482;9.154;2023-11-18T08:10:50;102387.44;;;-0.97;93.78
80585;BME280;70137;56.482;9.154;2023-11-18T08:13:16;102396.72;;;-0.94;93.47
80585;BME280;70137;56.482;9.154;2023-11-18T08:15:42;102389.69;;;-0.88;93.64
80585;BME280;70137;56.482;9.154;2023-11-18T08:18:10;102395.59;;;-0.85;94.02
80585;BME280;70137;56.482;9.154;2023-11-18T08:20:36;102398.81;;;-0.80;94.21
80585;BME280;70137;56.482;9.154;2023-11-18T08:23:03;102398.63;;;-0.74;94.39
80585;BME280;70137;56.482;9.154;2023-11-18T08:25:31;102393.41;;;-0.71;94.04
80585;BME280;70137;56.482;9.154;2023-11-18T08:28:01;102392.44;;;-0.67;94.36
80585;BME280;70137;56.482;9.154;2023-11-18T08:30:26;102388.03;;;-0.62;94.40
80585;BME280;70137;56.482;9.154;2023-11-18T08:32:53;102397.22;;;-0.58;94.79
80585;BME280;70137;56.482;9.154;2023-11-18T08:35:18;102402.09;;;-0.52;94.27
80585;BME280;70137;56.482;9.154;2023-11-18T08:37:46;102401.81;;;-0.43;94.87
80585;BME280;70137;56.482;9.154;2023-11-18T08:40:13;102402.38;;;-0.35;95.07
80585;BME280;70137;56.482;9.154;2023-11-18T08:42:49;102406.41;;;-0.27;94.44
80585;BME280;70137;56.482;9.154;2023-11-18T08:45:25;102417.06;;;-0.16;95.46
80585;BME280;70137;56.482;9.154;2023-11-18T08:47:53;102417.44;;;-0.04;94.93
80585;BME280;70137;56.482;9.154;2023-11-18T08:50:20;102417.84;;;0.09;95.16
80585;BME280;70137;56.482;9.154;2023-11-18T08:52:50;102415.69;;;0.22;94.76
80585;BME280;70137;56.482;9.154;2023-11-18T08:55:18;102406.75;;;0.34;95.42
80585;BME280;70137;56.482;9.154;2023-11-18T08:57:45;102408.16;;;0.42;94.93
80585;BME280;70137;56.482;9.154;2023-11-18T09:00:17;102407.75;;;0.53;95.71
80585;BME280;70137;56.482;9.154;2023-11-18T09:03:02;102410.06;;;0.59;95.43
80585;BME280;70137;56.482;9.154;2023-11-18T09:05:32;102390.31;;;0.64;95.33
80585;BME280;70137;56.482;9.154;2023-11-18T09:07:58;102389.19;;;0.71;95.53
80585;BME280;70137;56.482;9.154;2023-11-18T09:10:26;102388.16;;;0.75;95.33
80585;BME280;70137;56.482;9.154;2023-11-18T09:12:53;102388.06;;;0.78;95.58
80585;BME280;70137;56.482;9.154;2023-11-18T09:15:20;102389.59;;;0.82;94.48
80585;BME280;70137;56.482;9.154;2023-11-18T09:17:48;102379.25;;;0.85;95.52
80585;BME280;70137;56.482;9.154;2023-11-18T09:20:14;102373.91;;;0.92;94.68
80585;BME280;70137;56.482;9.154;2023-11-18T09:22:44;102384.72;;;0.98;95.12
80585;BME280;70137;56.482;9.154;2023-11-18T09:25:10;102376.03;;;1.02;94.65
80585;BME280;70137;56.482;9.154;2023-11-18T09:27:36;102380.97;;;1.07;94.34
80585;BME280;70137;56.482;9.154;2023-11-18T09:30:01;102374.78;;;1.12;94.36
80585;BME280;70137;56.482;9.154;2023-11-18T09:32:30;102367.09;;;1.12;94.09
80585;BME280;70137;56.482;9.154;2023-11-18T09:34:59;102354.63;;;1.05;94.11
80585;BME280;70137;56.482;9.154;2023-11-18T09:37:24;102339.69;;;0.96;93.84
80585;BME280;70137;56.482;9.154;2023-11-18T09:39:50;102348.50;;;0.89;93.33
80585;BME280;70137;56.482;9.154;2023-11-18T09:42:17;102358.97;;;0.82;94.10
80585;BME280;70137;56.482;9.154;2023-11-18T09:44:44;102356.53;;;0.79;93.45
80585;BME280;70137;56.482;9.154;2023-11-18T09:47:14;102362.53;;;0.78;93.79
80585;BME280;70137;56.482;9.154;2023-11-18T09:49:44;102363.28;;;0.80;93.37
80585;BME280;70137;56.482;9.154;2023-11-18T09:52:16;102362.28;;;0.84;94.44
80585;BME280;70137;56.482;9.154;2023-11-18T09:55:11;102366.31;;;0.90;93.67
80585;BME280;70137;56.482;9.154;2023-11-18T09:57:50;102360.13;;;0.96;94.68
80585;BME280;70137;56.482;9.154;2023-11-18T10:00:22;102351.47;;;1.00;93.95
80585;BME280;70137;56.482;9.154;2023-11-18T10:02:58;102356.19;;;1.09;94.00
80585;BME280;70137;56.482;9.154;2023-11-18T10:05:26;102342.03;;;1.22;95.14
80585;BME280;70137;56.482;9.154;2023-11-18T10:07:52;102341.41;;;1.37;94.83
80585;BME280;70137;56.482;9.154;2023-11-18T10:10:19;102344.91;;;1.55;94.99
80585;BME280;70137;56.482;9.154;2023-11-18T10:12:50;102343.13;;;1.76;94.80
80585;BME280;70137;56.482;9.154;2023-11-18T10:15:23;102338.22;;;1.90;95.68
80585;BME280;70137;56.482;9.154;2023-11-18T10:17:50;102338.59;;;2.01;96.30
80585;BME280;70137;56.482;9.154;2023-11-18T10:20:45;102333.06;;;2.11;95.57
80585;BME280;70137;56.482;9.154;2023-11-18T10:23:11;102329.31;;;2.18;96.59
80585;BME280;70137;56.482;9.154;2023-11-18T10:25:48;102330.81;;;2.22;96.43
80585;BME280;70137;56.482;9.154;2023-11-18T10:28:30;102327.53;;;2.20;96.03
80585;BME280;70137;56.482;9.154;2023-11-18T10:31:05;102328.34;;;2.20;96.20
80585;BME280;70137;56.482;9.154;2023-11-18T10:33:38;102321.31;;;2.25;96.10
80585;BME280;70137;56.482;9.154;2023-11-18T10:36:04;102320.31;;;2.28;96.16
80585;BME280;70137;56.482;9.154;2023-11-18T10:38:38;102322.13;;;2.26;96.10
80585;BME280;70137;56.482;9.154;2023-11-18T10:41:08;102311.00;;;2.27;96.07
80585;BME280;70137;56.482;9.154;2023-11-18T10:43:35;102309.59;;;2.39;96.60
80585;BME280;70137;56.482;9.154;2023-11-18T10:46:14;102308.19;;;2.50;96.10
80585;BME280;70137;56.482;9.154;2023-11-18T10:48:41;102320.53;;;2.59;96.48
80585;BME280;70137;56.482;9.154;2023-11-18T10:51:12;102311.59;;;2.68;96.85
80585;BME280;70137;56.482;9.154;2023-11-18T10:53:41;102308.16;;;2.86;96.07
80585;BME280;70137;56.482;9.154;2023-11-18T10:56:22;102288.31;;;3.07;97.03
80585;BME280;70137;56.482;9.154;2023-11-18T10:58:58;102294.97;;;3.29;96.40
80585;BME280;70137;56.482;9.154;2023-11-18T11:01:31;102280.69;;;3.40;96.86
80585;BME280;70137;56.482;9.154;2023-11-18T11:03:57;102278.28;;;3.53;97.32
80585;BME280;70137;56.482;9.154;2023-11-18T11:06:27;102284.44;;;3.66;97.59
80585;BME280;70137;56.482;9.154;2023-11-18T11:08:56;102275.84;;;3.83;96.84
80585;BME280;70137;56.482;9.154;2023-11-18T11:11:25;102273.47;;;3.96;97.48
80585;BME280;70137;56.482;9.154;2023-11-18T11:13:59;102275.78;;;4.00;97.21
80585;BME280;70137;56.482;9.154;2023-11-18T11:16:45;102258.75;;;4.15;96.91
80585;BME280;70137;56.482;9.154;2023-11-18T11:19:38;102253.56;;;4.31;96.91
80585;BME280;70137;56.482;9.154;2023-11-18T11:22:10;102252.19;;;4.25;96.36
80585;BME280;70137;56.482;9.154;2023-11-18T11:27:25;102248.06;;;4.07;95.55
80585;BME280;70137;56.482;9.154;2023-11-18T11:30:15;102255.34;;;3.99;95.28
80585;BME280;70137;56.482;9.154;2023-11-18T11:32:51;102249.28;;;4.00;95.03
80585;BME280;70137;56.482;9.154;2023-11-18T11:35:30;102242.94;;;4.07;95.42
80585;BME280;70137;56.482;9.154;2023-11-18T11:37:56;102240.78;;;4.15;94.99
80585;BME280;70137;56.482;9.154;2023-11-18T11:40:31;102230.72;;;4.26;94.88
80585;BME280;70137;56.482;9.154;2023-11-18T11:42:58;102224.50;;;4.30;95.21
80585;BME280;70137;56.482;9.154;2023-11-18T11:45:27;102229.13;;;4.40;94.33
80585;BME280;70137;56.482;9.154;2023-11-18T11:47:57;102215.84;;;4.47;93.94
80585;BME280;70137;56.482;9.154;2023-11-18T11:50:59;102209.22;;;4.43;93.85
80585;BME280;70137;56.482;9.154;2023-11-18T11:53:32;102202.19;;;4.47;92.95
80585;BME280;70137;56.482;9.154;2023-11-18T11:56:01;102193.00;;;4.43;93.50
80585;BME280;70137;56.482;9.154;2023-11-18T11:58:41;102190.91;;;4.49;93.02
80585;BME280;70137;56.482;9.154;2023-11-18T12:01:28;102187.50;;;4.49;91.90
80585;BME280;70137;56.482;9.154;2023-11-18T12:03:58;102185.03;;;4.47;91.31
80585;BME280;70137;56.482;9.154;2023-11-18T12:06:30;102177.25;;;4.49;91.07
80585;BME280;70137;56.482;9.154;2023-11-18T12:08:56;102169.25;;;4.39;90.77
80585;BME280;70137;56.482;9.154;2023-11-18T12:11:22;102166.56;;;4.41;90.66
80585;BME280;70137;56.482;9.154;2023-11-18T12:14:20;102157.97;;;4.42;90.28
80585;BME280;70137;56.482;9.154;2023-11-18T12:19:37;102161.97;;;4.31;89.04
80585;BME280;70137;56.482;9.154;2023-11-18T12:22:16;102167.19;;;4.30;89.66
80585;BME280;70137;56.482;9.154;2023-11-18T12:30:38;102180.44;;;4.38;89.96
80585;BME280;70137;56.482;9.154;2023-11-18T12:33:06;102176.66;;;4.44;89.61
80585;BME280;70137;56.482;9.154;2023-11-18T12:41:34;102162.34;;;4.40;89.14
80585;BME280;70137;56.482;9.154;2023-11-18T12:46:54;102166.03;;;4.36;89.00
80585;BME280;70137;56.482;9.154;2023-11-18T12:49:21;102161.06;;;4.32;88.57
80585;BME280;70137;56.482;9.154;2023-11-18T12:51:54;102162.69;;;4.34;89.49
80585;BME280;70137;56.482;9.154;2023-11-18T12:54:20;102159.25;;;4.35;88.77
80585;BME280;70137;56.482;9.154;2023-11-18T12:56:50;102159.16;;;4.36;89.01
80585;BME280;70137;56.482;9.154;2023-11-18T12:59:19;102150.53;;;4.37;89.40
80585;BME280;70137;56.482;9.154;2023-11-18T13:01:49;102141.09;;;4.38;88.96
80585;BME280;70137;56.482;9.154;2023-11-18T13:04:22;102141.19;;;4.36;89.18
80585;BME280;70137;56.482;9.154;2023-11-18T13:06:49;102142.00;;;4.37;88.84
80585;BME280;70137;56.482;9.154;2023-11-18T13:09:17;102140.34;;;4.36;89.04
80585;BME280;70137;56.482;9.154;2023-11-18T13:11:59;102126.22;;;4.28;89.07
80585;BME280;70137;56.482;9.154;2023-11-18T13:14:30;102129.13;;;4.22;89.16
80585;BME280;70137;56.482;9.154;2023-11-18T13:16:58;102125.19;;;4.17;89.51
80585;BME280;70137;56.482;9.154;2023-11-18T13:19:29;102121.03;;;4.14;90.00
80585;BME280;70137;56.482;9.154;2023-11-18T13:22:08;102105.81;;;4.11;89.69
80585;BME280;70137;56.482;9.154;2023-11-18T13:24:38;102095.81;;;4.07;89.51